createdAt,value
2018-02-08T00:00:44.386Z,50.20
2018-02-08T00:03:11.878Z,44.40
2018-02-08T00:05:39.342Z,42.57
2018-02-08T00:08:06.823Z,45.67
2018-02-08T00:10:34.290Z,44.97
2018-02-08T00:13:01.772Z,46.07
2018-02-08T00:15:29.259Z,48.63
2018-02-08T00:17:56.746Z,51.37
2018-02-08T00:20:24.210Z,50.13
2018-02-08T00:22:51.729Z,47.40
2018-02-08T00:25:19.223Z,43.17
2018-02-08T00:27:46.714Z,45.30
2018-02-08T00:30:14.183Z,55.47
2018-02-08T00:32:41.666Z,52.57
2018-02-08T00:35:09.130Z,48.77
2018-02-08T00:37:36.610Z,47.53
2018-02-08T00:40:04.070Z,48.73
2018-02-08T00:42:31.562Z,48.20
2018-02-08T00:44:59.147Z,48.60
2018-02-08T00:47:26.630Z,44.80
2018-02-08T00:49:54.097Z,46.50
2018-02-08T00:52:21.591Z,44.07
2018-02-08T00:54:49.065Z,46.80
2018-02-08T00:57:16.734Z,45.20
2018-02-08T00:59:44.189Z,45.40
2018-02-08T01:02:11.648Z,45.43
2018-02-08T01:04:39.135Z,44.73
2018-02-08T01:07:06.594Z,48.87
2018-02-08T01:09:34.084Z,52.20
2018-02-08T01:12:01.546Z,50.07
2018-02-08T01:14:29.097Z,47.10
2018-02-08T01:16:56.518Z,49.63
2018-02-08T01:19:23.998Z,52.47
2018-02-08T01:21:51.455Z,50.83
2018-02-08T01:24:18.940Z,48.20
2018-02-08T01:26:46.438Z,54.87
2018-02-08T01:29:13.919Z,48.53
2018-02-08T01:31:41.391Z,50.63
2018-02-08T01:34:08.890Z,51.47
2018-02-08T01:36:36.359Z,49.50
2018-02-08T01:39:03.838Z,47.33
2018-02-08T01:41:31.306Z,45.90
2018-02-08T01:43:58.818Z,46.03
2018-02-08T01:46:26.291Z,43.33
2018-02-08T01:48:53.781Z,47.40
2018-02-08T01:51:21.251Z,46.13
2018-02-08T01:53:48.735Z,47.60
2018-02-08T01:56:16.194Z,46.33
2018-02-08T01:58:43.678Z,41.93
2018-02-08T02:01:11.143Z,44.33
2018-02-08T02:03:38.636Z,36.67
2018-02-08T02:06:06.095Z,47.27
2018-02-08T02:08:33.580Z,44.77
2018-02-08T02:11:01.139Z,52.43
2018-02-08T02:13:28.622Z,54.70
2018-02-08T02:15:56.092Z,49.30
2018-02-08T02:18:23.579Z,57.13
2018-02-08T02:20:51.049Z,50.30
2018-02-08T02:23:18.537Z,56.20
2018-02-08T02:25:46.019Z,51.13
2018-02-08T02:28:13.483Z,52.73
2018-02-08T02:30:40.980Z,51.27
2018-02-08T02:33:08.447Z,52.27
2018-02-08T02:35:35.922Z,51.73
2018-02-08T02:38:03.402Z,56.23
2018-02-08T02:40:30.888Z,51.27
2018-02-08T02:42:58.376Z,50.37
2018-02-08T02:45:25.856Z,49.23
2018-02-08T02:47:53.318Z,52.77
2018-02-08T02:50:20.817Z,55.47
2018-02-08T02:52:48.299Z,53.97
2018-02-08T02:55:15.804Z,51.93
2018-02-08T02:57:43.279Z,53.07
2018-02-08T03:00:10.771Z,54.63
2018-02-08T03:02:38.235Z,56.83
2018-02-08T03:05:05.718Z,50.20
2018-02-08T03:07:33.194Z,52.47
2018-02-08T03:10:00.694Z,46.90
2018-02-08T03:12:28.154Z,52.30
2018-02-08T03:14:55.638Z,51.43
2018-02-08T03:17:23.111Z,49.87
2018-02-08T03:19:50.599Z,50.13
2018-02-08T03:22:18.068Z,44.50
2018-02-08T03:24:45.559Z,47.73
2018-02-08T03:27:13.023Z,47.70
2018-02-08T03:29:40.505Z,48.93
2018-02-08T03:32:07.996Z,45.53
2018-02-08T03:34:35.491Z,45.10
2018-02-08T03:37:02.966Z,43.17
2018-02-08T03:39:30.462Z,39.43
2018-02-08T03:41:57.930Z,42.90
2018-02-08T03:44:25.417Z,39.23
2018-02-08T03:46:52.990Z,42.67
2018-02-08T03:49:20.470Z,41.73
2018-02-08T03:51:47.933Z,40.90
2018-02-08T03:54:15.418Z,44.30
2018-02-08T03:56:42.906Z,50.33
2018-02-08T03:59:10.369Z,47.07
2018-02-08T04:01:37.851Z,44.33
2018-02-08T04:04:05.312Z,47.97
2018-02-08T04:06:32.804Z,51.23
2018-02-08T04:09:00.406Z,45.93
2018-02-08T04:11:27.886Z,45.57
2018-02-08T04:13:55.360Z,44.03
2018-02-08T04:16:22.851Z,50.10
2018-02-08T04:18:50.318Z,50.60
2018-02-08T04:21:17.819Z,52.93
2018-02-08T04:23:45.302Z,46.37
2018-02-08T04:26:12.786Z,46.87
2018-02-08T04:28:40.254Z,46.57
2018-02-08T04:31:07.743Z,47.90
2018-02-08T04:33:35.210Z,44.30
2018-02-08T04:36:02.700Z,47.00
2018-02-08T04:38:41.941Z,48.83
2018-02-08T04:41:21.101Z,49.63
2018-02-08T04:44:00.456Z,54.77
2018-02-08T04:46:39.725Z,54.57
2018-02-08T04:49:07.230Z,59.37
2018-02-08T04:51:34.713Z,58.30
2018-02-08T04:54:02.205Z,52.97
2018-02-08T04:56:29.854Z,51.43
2018-02-08T04:58:57.322Z,48.00
2018-02-08T05:01:24.806Z,49.37
2018-02-08T05:03:52.262Z,55.70
2018-02-08T05:06:19.746Z,55.57
2018-02-08T05:08:47.216Z,57.70
2018-02-08T05:11:14.707Z,48.93
2018-02-08T05:13:42.171Z,48.70
2018-02-08T05:16:09.657Z,44.93
2018-02-08T05:18:37.120Z,43.47
2018-02-08T05:21:04.604Z,47.30
2018-02-08T05:23:32.071Z,47.03
2018-02-08T05:25:59.718Z,44.70
2018-02-08T05:28:27.191Z,49.20
2018-02-08T05:30:54.686Z,45.33
2018-02-08T05:33:22.175Z,49.07
2018-02-08T05:35:49.678Z,52.37
2018-02-08T05:38:17.162Z,49.80
2018-02-08T05:40:44.631Z,57.70
2018-02-08T05:43:12.111Z,54.53
2018-02-08T05:45:39.570Z,50.50
2018-02-08T05:48:07.059Z,50.87
2018-02-08T05:50:34.531Z,48.43
2018-02-08T05:53:02.015Z,51.20
2018-02-08T05:55:29.479Z,50.30
2018-02-08T05:57:56.959Z,45.47
2018-02-08T06:00:24.458Z,44.80
2018-02-08T06:02:51.950Z,46.90
2018-02-08T06:05:19.434Z,42.63
2018-02-08T06:07:46.919Z,43.43
2018-02-08T06:10:14.390Z,41.27
2018-02-08T06:12:41.876Z,50.50
2018-02-08T06:15:09.338Z,48.63
2018-02-08T06:17:36.912Z,46.20
2018-02-08T06:20:04.385Z,50.20
2018-02-08T06:22:31.883Z,41.47
2018-02-08T06:25:00.497Z,44.53
2018-02-08T06:27:27.962Z,44.13
2018-02-08T06:29:55.427Z,47.57
2018-02-08T06:32:22.927Z,47.73
2018-02-08T06:34:50.394Z,47.07
2018-02-08T06:37:17.877Z,48.13
2018-02-08T06:39:45.351Z,45.27
2018-02-08T06:42:12.831Z,45.60
2018-02-08T06:47:14.030Z,44.73
2018-02-08T06:49:41.491Z,49.33
2018-02-08T06:52:08.984Z,46.53
2018-02-08T06:54:36.458Z,44.43
2018-02-08T06:57:03.940Z,46.50
2018-02-08T06:59:31.403Z,44.67
2018-02-08T07:01:58.864Z,57.77
2018-02-08T07:04:26.345Z,46.07
2018-02-08T07:06:53.814Z,45.33
2018-02-08T07:09:21.299Z,48.03
2018-02-08T07:11:48.764Z,52.10
2018-02-08T07:14:16.247Z,53.10
2018-02-08T07:16:43.714Z,45.77
2018-02-08T07:19:11.199Z,50.00
2018-02-08T07:21:38.668Z,44.60
2018-02-08T07:24:06.147Z,46.20
2018-02-08T07:26:33.614Z,51.27
2018-02-08T07:29:01.104Z,46.77
2018-02-08T07:31:28.683Z,46.67
2018-02-08T07:33:56.208Z,47.07
2018-02-08T07:36:23.672Z,48.57
2018-02-08T07:38:51.165Z,44.77
2018-02-08T07:41:18.634Z,44.30
2018-02-08T07:43:46.160Z,43.27
2018-02-08T07:46:13.629Z,46.70
2018-02-08T07:48:41.114Z,43.50
2018-02-08T07:51:08.587Z,41.97
2018-02-08T07:53:36.080Z,40.70
2018-02-08T07:56:03.552Z,45.83
2018-02-08T07:58:31.043Z,44.53
2018-02-08T08:00:58.513Z,47.23
2018-02-08T08:03:26.003Z,44.40
2018-02-08T08:05:53.518Z,44.90
2018-02-08T08:08:21.030Z,39.50
2018-02-08T08:10:48.530Z,43.40
2018-02-08T08:13:16.024Z,41.27
2018-02-08T08:15:43.497Z,48.47
2018-02-08T08:18:10.990Z,44.93
2018-02-08T08:20:38.459Z,37.50
2018-02-08T08:23:05.936Z,43.13
2018-02-08T08:25:33.428Z,41.73
2018-02-08T08:28:00.899Z,37.57
2018-02-08T08:30:28.395Z,39.53
2018-02-08T08:32:55.854Z,41.40
2018-02-08T08:35:23.346Z,40.33
2018-02-08T08:37:50.850Z,50.40
2018-02-08T08:40:18.331Z,45.53
2018-02-08T08:42:45.804Z,40.73
2018-02-08T08:45:13.303Z,45.67
2018-02-08T08:47:40.775Z,46.43
2018-02-08T08:50:08.268Z,41.20
2018-02-08T08:52:35.743Z,44.37
2018-02-08T08:55:03.235Z,40.87
2018-02-08T08:57:30.710Z,43.73
2018-02-08T08:59:58.194Z,46.93
2018-02-08T09:02:25.674Z,44.23
2018-02-08T09:04:53.167Z,44.60
2018-02-08T09:07:20.634Z,36.97
2018-02-08T09:09:48.123Z,38.00
2018-02-08T09:12:15.613Z,40.83
2018-02-08T09:14:43.318Z,42.10
2018-02-08T09:17:10.787Z,40.80
2018-02-08T09:19:38.270Z,46.53
2018-02-08T09:22:05.737Z,42.40
2018-02-08T09:24:33.258Z,40.77
2018-02-08T09:27:00.725Z,39.73
2018-02-08T09:29:28.217Z,39.83
2018-02-08T09:31:55.710Z,45.20
2018-02-08T09:34:23.207Z,41.70
2018-02-08T09:36:50.675Z,46.03
2018-02-08T09:39:18.171Z,41.10
2018-02-08T09:41:45.646Z,38.40
2018-02-08T09:44:13.166Z,41.27
2018-02-08T09:46:40.634Z,38.23
2018-02-08T09:49:08.103Z,42.37
2018-02-08T09:51:35.610Z,42.17
2018-02-08T09:54:03.081Z,42.67
2018-02-08T09:56:30.575Z,42.87
2018-02-08T09:58:58.038Z,42.83
2018-02-08T10:01:25.520Z,40.20
2018-02-08T10:03:52.991Z,43.70
2018-02-08T10:06:21.046Z,41.53
2018-02-08T10:08:49.423Z,41.60
2018-02-08T10:11:17.771Z,42.43
2018-02-08T10:13:45.340Z,43.73
2018-02-08T10:16:12.935Z,41.70
2018-02-08T10:18:40.457Z,40.93
2018-02-08T10:21:07.951Z,44.90
2018-02-08T10:23:35.430Z,43.67
2018-02-08T10:26:02.915Z,45.83
2018-02-08T10:28:30.427Z,46.10
2018-02-08T10:30:57.884Z,47.50
2018-02-08T10:33:25.360Z,41.47
2018-02-08T10:35:52.858Z,44.30
2018-02-08T10:38:20.321Z,50.07
2018-02-08T10:40:47.944Z,40.53
2018-02-08T10:43:15.406Z,47.37
2018-02-08T10:45:43.835Z,45.53
2018-02-08T10:48:11.298Z,47.10
2018-02-08T10:50:38.798Z,40.83
2018-02-08T10:53:06.495Z,42.90
2018-02-08T10:55:33.975Z,45.03
2018-02-08T10:58:01.444Z,41.77
2018-02-08T11:00:29.159Z,40.43
2018-02-08T11:02:56.636Z,43.70
2018-02-08T11:05:25.131Z,42.33
2018-02-08T11:07:52.603Z,40.07
2018-02-08T11:10:20.091Z,39.33
2018-02-08T11:12:47.552Z,42.00
2018-02-08T11:15:15.018Z,40.00
2018-02-08T11:17:42.506Z,45.30
2018-02-08T11:20:09.999Z,41.47
2018-02-08T11:22:37.501Z,43.00
2018-02-08T11:25:05.003Z,40.73
2018-02-08T11:27:32.523Z,40.57
2018-02-08T11:29:59.997Z,39.50
2018-02-08T11:32:27.515Z,43.97
2018-02-08T11:34:55.011Z,44.53
2018-02-08T11:37:22.537Z,41.50
2018-02-08T11:39:50.012Z,45.20
2018-02-08T11:42:17.515Z,41.47
2018-02-08T11:44:44.995Z,41.93
2018-02-08T11:47:12.661Z,44.07
2018-02-08T11:49:40.135Z,39.73
2018-02-08T11:52:07.779Z,40.50
2018-02-08T11:54:35.248Z,44.57
2018-02-08T11:57:03.073Z,42.80
2018-02-08T11:59:30.579Z,42.57
2018-02-08T12:01:58.087Z,44.80
2018-02-08T12:04:25.576Z,40.07
2018-02-08T12:06:53.075Z,39.27
2018-02-08T12:09:20.959Z,36.83
2018-02-08T12:11:48.456Z,39.83
2018-02-08T12:14:20.172Z,39.43
2018-02-08T12:16:48.171Z,40.97
2018-02-08T12:19:15.810Z,40.73
2018-02-08T12:21:43.384Z,36.80
2018-02-08T12:24:12.217Z,40.27
2018-02-08T12:26:40.068Z,42.73
2018-02-08T12:29:07.603Z,37.37
2018-02-08T12:31:35.146Z,38.53
2018-02-08T12:34:02.602Z,40.73
2018-02-08T12:36:30.880Z,45.67
2018-02-08T12:39:01.078Z,43.67
2018-02-08T12:41:28.784Z,42.77
2018-02-08T12:43:56.458Z,42.13
2018-02-08T12:46:26.568Z,39.10
2018-02-08T12:48:56.480Z,37.77
2018-02-08T12:51:23.995Z,33.67
2018-02-08T12:53:51.479Z,36.00
2018-02-08T12:56:19.628Z,32.93
2018-02-08T12:58:47.166Z,33.87
2018-02-08T13:01:15.921Z,34.80
2018-02-08T13:03:43.453Z,33.13
2018-02-08T13:06:10.982Z,32.43
2018-02-08T13:08:39.607Z,33.83
2018-02-08T13:11:08.362Z,35.73
2018-02-08T13:13:36.805Z,31.77
2018-02-08T13:16:04.741Z,31.17
2018-02-08T13:18:33.324Z,31.23
2018-02-08T13:21:04.800Z,33.83
2018-02-08T13:23:32.312Z,33.47
2018-02-08T13:26:00.005Z,34.23
2018-02-08T13:28:27.568Z,34.23
2018-02-08T13:30:56.361Z,31.50
2018-02-08T13:33:24.177Z,34.77
2018-02-08T13:35:52.735Z,32.63
2018-02-08T13:38:20.285Z,34.63
2018-02-08T13:40:50.479Z,30.57
2018-02-08T13:43:17.995Z,33.23
2018-02-08T13:45:45.467Z,36.80
2018-02-08T13:48:31.914Z,33.17
2018-02-08T13:51:04.990Z,27.43
2018-02-08T13:56:48.778Z,29.40
2018-02-08T13:59:21.919Z,25.97
2018-02-08T14:01:50.327Z,31.83
2018-02-08T14:04:17.811Z,30.97
2018-02-08T14:06:45.296Z,31.65
2018-02-08T14:09:12.783Z,29.33
2018-02-08T14:11:40.264Z,26.83
2018-02-08T14:14:07.765Z,26.37
2018-02-08T14:16:35.226Z,26.77
2018-02-08T14:19:02.714Z,28.13
2018-02-08T14:21:30.174Z,26.77
2018-02-08T14:23:57.666Z,26.20
2018-02-08T14:26:25.125Z,29.97
2018-02-08T14:28:52.615Z,27.10
2018-02-08T14:31:20.080Z,27.37
2018-02-08T14:33:47.566Z,26.20
2018-02-08T14:36:15.042Z,26.60
2018-02-08T14:38:42.516Z,27.57
2018-02-08T14:41:10.006Z,27.87
2018-02-08T14:43:37.482Z,26.10
2018-02-08T14:46:05.022Z,29.53
2018-02-08T14:48:32.450Z,26.20
2018-02-08T14:50:59.926Z,25.80
2018-02-08T14:53:27.404Z,21.60
2018-02-08T14:55:54.895Z,21.67
2018-02-08T14:58:22.358Z,23.40
2018-02-08T15:00:49.864Z,23.93
2018-02-08T15:03:17.328Z,21.93
2018-02-08T15:05:44.827Z,26.37
2018-02-08T15:08:12.336Z,22.00
2018-02-08T15:10:39.832Z,19.43
2018-02-08T15:13:07.306Z,24.80
2018-02-08T15:15:34.786Z,29.03
2018-02-08T15:18:02.257Z,26.00
2018-02-08T15:20:30.089Z,23.90
2018-02-08T15:22:57.988Z,27.80
2018-02-08T15:25:25.842Z,27.13
2018-02-08T15:27:53.772Z,28.43
2018-02-08T15:30:21.335Z,27.20
2018-02-08T15:32:49.846Z,25.17
2018-02-08T15:35:17.376Z,25.83
2018-02-08T15:37:45.071Z,22.90
2018-02-08T15:40:12.892Z,23.20
2018-02-08T15:42:40.357Z,26.63
2018-02-08T15:45:08.208Z,22.87
2018-02-08T15:47:35.734Z,25.80
2018-02-08T15:50:03.256Z,24.63
2018-02-08T15:52:31.237Z,24.57
2018-02-08T15:54:58.753Z,27.93
2018-02-08T15:57:26.612Z,25.07
2018-02-08T15:59:54.444Z,26.07
2018-02-08T16:02:21.938Z,26.93
2018-02-08T16:04:49.426Z,25.23
2018-02-08T16:07:16.950Z,26.60
2018-02-08T16:09:44.937Z,29.27
2018-02-08T16:12:12.766Z,29.37
2018-02-08T16:14:40.234Z,28.87
2018-02-08T16:17:07.711Z,28.63
2018-02-08T16:19:35.217Z,32.30
2018-02-08T16:22:02.703Z,31.27
2018-02-08T16:24:30.170Z,32.60
2018-02-08T16:26:57.654Z,29.87
2018-02-08T16:29:25.188Z,28.77
2018-02-08T16:31:52.679Z,34.60
2018-02-08T16:34:20.159Z,31.47
2018-02-08T16:36:47.652Z,41.97
2018-02-08T16:39:15.132Z,33.90
2018-02-08T16:41:42.611Z,32.47
2018-02-08T16:44:10.090Z,33.77
2018-02-08T16:46:37.582Z,33.83
2018-02-08T16:49:05.058Z,32.13
2018-02-08T16:51:32.539Z,30.57
2018-02-08T16:54:00.027Z,35.03
2018-02-08T16:56:27.510Z,32.70
2018-02-08T16:58:54.989Z,35.77
2018-02-08T17:01:22.479Z,33.10
2018-02-08T17:03:49.947Z,37.07
2018-02-08T17:06:17.435Z,41.03
2018-02-08T17:08:44.911Z,35.90
2018-02-08T17:11:12.411Z,39.50
2018-02-08T17:13:39.875Z,49.30
2018-02-08T17:16:07.364Z,41.60
2018-02-08T17:18:34.832Z,39.37
2018-02-08T17:21:02.303Z,43.00
2018-02-08T17:23:29.796Z,40.57
2018-02-08T17:25:57.268Z,37.27
2018-02-08T17:28:24.773Z,39.90
2018-02-08T17:30:52.243Z,40.73
2018-02-08T17:33:19.750Z,40.43
2018-02-08T17:35:47.479Z,40.37
2018-02-08T17:38:15.005Z,37.50
2018-02-08T17:40:42.495Z,43.00
2018-02-08T17:43:09.996Z,41.07
2018-02-08T17:45:37.467Z,40.87
2018-02-08T17:48:04.968Z,38.37
2018-02-08T17:50:32.433Z,38.93
2018-02-08T17:52:59.926Z,38.90
2018-02-08T17:55:27.650Z,46.17
2018-02-08T17:57:55.153Z,36.40
2018-02-08T18:00:22.619Z,44.57
2018-02-08T18:02:50.108Z,38.30
2018-02-08T18:05:17.602Z,40.83
2018-02-08T18:07:45.094Z,38.03
2018-02-08T18:10:12.605Z,47.03
2018-02-08T18:12:40.067Z,43.37
2018-02-08T18:15:07.534Z,42.93
2018-02-08T18:17:35.047Z,44.17
2018-02-08T18:20:02.516Z,42.03
2018-02-08T18:22:30.008Z,43.23
2018-02-08T18:24:57.499Z,41.90
2018-02-08T18:27:24.993Z,43.93
2018-02-08T18:29:52.475Z,44.57
2018-02-08T18:32:19.967Z,42.33
2018-02-08T18:34:48.354Z,39.87
2018-02-08T18:37:15.860Z,41.97
2018-02-08T18:39:43.335Z,46.10
2018-02-08T18:42:10.832Z,39.13
2018-02-08T18:44:38.302Z,41.93
2018-02-08T18:47:05.773Z,46.83
2018-02-08T18:49:33.308Z,44.87
2018-02-08T18:52:00.793Z,45.10
2018-02-08T18:54:28.271Z,47.17
2018-02-08T18:56:55.762Z,54.60
2018-02-08T18:59:23.257Z,51.13
2018-02-08T19:01:50.750Z,49.20
2018-02-08T19:04:18.243Z,50.13
2018-02-08T19:06:45.702Z,45.77
2018-02-08T19:09:13.208Z,42.93
2018-02-08T19:11:40.679Z,44.90
2018-02-08T19:14:08.178Z,46.37
2018-02-08T19:16:35.643Z,49.90
2018-02-08T19:19:03.149Z,48.40
2018-02-08T19:21:30.631Z,54.37
2018-02-08T19:23:58.116Z,48.03
2018-02-08T19:26:25.587Z,46.40
2018-02-08T19:28:53.076Z,49.20
2018-02-08T19:31:20.546Z,54.90
2018-02-08T19:33:48.065Z,53.47
2018-02-08T19:36:15.526Z,51.80
2018-02-08T19:38:43.010Z,51.53
2018-02-08T19:41:10.482Z,53.03
2018-02-08T19:43:37.959Z,53.90
2018-02-08T19:46:05.543Z,55.43
2018-02-08T19:48:33.051Z,56.90
2018-02-08T19:51:01.499Z,49.47
2018-02-08T19:53:28.984Z,52.03
2018-02-08T19:55:56.455Z,56.53
2018-02-08T19:58:23.951Z,57.17
2018-02-08T20:00:51.436Z,56.10
2018-02-08T20:03:18.967Z,56.23
2018-02-08T20:05:46.446Z,57.90
2018-02-08T20:08:13.906Z,56.70
2018-02-08T20:10:41.400Z,59.63
2018-02-08T20:13:08.871Z,56.87
2018-02-08T20:15:36.366Z,61.10
2018-02-08T20:18:03.863Z,54.47
2018-02-08T20:20:31.346Z,60.20
2018-02-08T20:22:58.816Z,58.17
2018-02-08T20:25:41.963Z,61.80
2018-02-08T20:28:09.434Z,61.27
2018-02-08T20:30:36.923Z,54.73
2018-02-08T20:33:04.404Z,56.57
2018-02-08T20:35:31.890Z,60.80
2018-02-08T20:37:59.356Z,59.77
2018-02-08T20:40:26.851Z,59.13
2018-02-08T20:43:00.187Z,62.63
2018-02-08T20:45:28.211Z,73.33
2018-02-08T20:47:55.699Z,64.23
2018-02-08T20:50:23.231Z,66.97
2018-02-08T20:52:51.725Z,71.17
2018-02-08T20:55:19.231Z,75.27
2018-02-08T20:57:46.709Z,81.43
2018-02-08T21:00:14.229Z,71.90
2018-02-08T21:02:41.713Z,74.47
2018-02-08T21:05:09.212Z,79.53
2018-02-08T21:07:36.730Z,77.03
2018-02-08T21:10:04.228Z,76.07
2018-02-08T21:12:32.204Z,78.37
2018-02-08T21:14:59.703Z,78.03
2018-02-08T21:17:27.209Z,73.43
2018-02-08T21:19:54.695Z,76.83
2018-02-08T21:22:22.160Z,75.10
2018-02-08T21:24:49.664Z,76.77
2018-02-08T21:27:17.148Z,84.17
2018-02-08T21:29:44.674Z,77.30
2018-02-08T21:32:12.371Z,80.77
2018-02-08T21:34:39.972Z,76.57
2018-02-08T21:37:07.463Z,76.87
2018-02-08T21:39:34.976Z,80.87
2018-02-08T21:42:02.499Z,79.37
2018-02-08T21:44:29.987Z,67.43
2018-02-08T21:46:57.483Z,73.77
2018-02-08T21:49:24.959Z,70.23
2018-02-08T21:51:52.455Z,69.70
2018-02-08T21:54:19.934Z,70.27
2018-02-08T21:56:47.472Z,75.27
2018-02-08T21:59:14.939Z,68.53
2018-02-08T22:01:42.434Z,59.93
2018-02-08T22:04:09.919Z,68.80
2018-02-08T22:06:37.406Z,64.17
2018-02-08T22:09:04.916Z,62.30
2018-02-08T22:11:32.405Z,60.03
2018-02-08T22:13:59.874Z,59.77
2018-02-08T22:16:27.365Z,62.73
2018-02-08T22:18:54.835Z,57.13
2018-02-08T22:21:22.332Z,58.20
2018-02-08T22:23:49.875Z,57.93
2018-02-08T22:26:17.359Z,56.23
2018-02-08T22:28:44.831Z,51.10
2018-02-08T22:31:12.310Z,51.37
2018-02-08T22:33:39.783Z,54.80
2018-02-08T22:36:07.303Z,55.90
2018-02-08T22:38:35.736Z,50.47
2018-02-08T22:41:03.263Z,48.17
2018-02-08T22:43:31.018Z,54.77
2018-02-08T22:45:58.898Z,49.73
2018-02-08T22:48:26.631Z,55.10
2018-02-08T22:50:54.138Z,48.93
2018-02-08T22:53:21.635Z,55.27
2018-02-08T22:55:49.214Z,51.73
2018-02-08T22:58:16.715Z,51.50
2018-02-08T23:00:45.016Z,49.13
2018-02-08T23:03:12.845Z,53.53
2018-02-08T23:05:40.377Z,45.83
2018-02-08T23:08:08.427Z,50.37
2018-02-08T23:10:36.369Z,50.50
2018-02-08T23:13:03.916Z,48.43
2018-02-08T23:15:31.709Z,50.93
2018-02-08T23:17:59.250Z,49.87
2018-02-08T23:20:26.759Z,47.63
2018-02-08T23:22:54.327Z,46.87
2018-02-08T23:25:22.669Z,44.20
2018-02-08T23:27:50.246Z,44.47
2018-02-08T23:30:18.541Z,41.43
2018-02-08T23:32:46.638Z,42.70
2018-02-08T23:35:14.516Z,42.03
2018-02-08T23:37:42.081Z,44.63
2018-02-08T23:40:09.604Z,43.97
2018-02-08T23:42:37.185Z,43.53
2018-02-08T23:45:05.543Z,38.73
2018-02-08T23:47:33.068Z,47.80
2018-02-08T23:50:01.037Z,39.73
2018-02-08T23:52:28.807Z,36.97
2018-02-08T23:54:56.276Z,37.77
2018-02-08T23:57:23.866Z,40.13
2018-02-08T23:59:51.623Z,39.40
